Time;durP1;ratioP1;P1;durP2;ratioP2;P2;SDS_P1;SDS_P2;PMS_P1;PMS_P2;Temp;Humidity;BMP_temperature;BMP_pressure;BME280_temperature;BME280_humidity;BME280_pressure;Samples;Min_cycle;Max_cycle;Signal;HPM_P1;HPM_P2
2023/07/22 00:01:25;;;;;;;14.27;6.13;;;12.70;99.90;;;;;;4965059;28;20047;-83
2023/07/22 00:03:51;;;;;;;11.10;5.75;;;12.70;99.90;;;;;;4981877;28;20101;-83
2023/07/22 00:06:17;;;;;;;11.57;6.13;;;12.70;99.90;;;;;;4977882;28;20034;-83
2023/07/22 00:08:42;;;;;;;13.45;5.63;;;12.70;99.90;;;;;;4968430;28;20039;-83
2023/07/22 00:11:08;;;;;;;12.43;5.88;;;12.70;99.90;;;;;;4981019;28;20038;-83
2023/07/22 00:13:34;;;;;;;12.15;6.22;;;12.60;99.90;;;;;;4978652;28;20165;-83
2023/07/22 00:16:00;;;;;;;9.85;5.80;;;12.60;99.90;;;;;;4979702;28;20121;-83
2023/07/22 00:18:28;;;;;;;13.82;5.75;;;12.60;99.90;;;;;;4966525;28;20054;-83
2023/07/22 00:20:57;;;;;;;10.35;5.88;;;12.60;99.90;;;;;;4981183;28;20038;-83
2023/07/22 00:23:23;;;;;;;10.43;5.60;;;12.60;99.90;;;;;;4967279;28;20129;-83
2023/07/22 00:25:49;;;;;;;13.27;6.50;;;12.50;99.90;;;;;;4967431;28;20531;-83
2023/07/22 00:28:15;;;;;;;13.57;6.38;;;12.50;99.90;;;;;;4966701;28;20035;-83
2023/07/22 00:30:41;;;;;;;12.02;6.68;;;12.50;99.90;;;;;;4983966;28;20043;-83
2023/07/22 00:33:07;;;;;;;11.90;6.07;;;12.50;99.90;;;;;;4983803;28;20038;-83
2023/07/22 00:35:33;;;;;;;12.48;7.00;;;12.50;99.90;;;;;;4983654;28;20038;-83
2023/07/22 00:38:00;;;;;;;20.70;7.60;;;12.50;99.90;;;;;;4978748;28;20042;-82
2023/07/22 00:40:25;;;;;;;12.27;6.57;;;12.50;99.90;;;;;;4983348;28;20941;-84
2023/07/22 00:42:51;;;;;;;13.00;7.47;;;12.40;99.90;;;;;;4985165;28;20039;-83
2023/07/22 00:45:17;;;;;;;12.93;7.25;;;12.40;99.90;;;;;;4966630;28;20070;-85
2023/07/22 00:47:44;;;;;;;13.65;6.82;;;12.40;99.90;;;;;;4963687;28;20042;-83
2023/07/22 00:50:10;;;;;;;10.70;6.43;;;12.40;99.90;;;;;;4967778;28;20503;-83
2023/07/22 00:52:37;;;;;;;12.95;7.10;;;12.30;99.90;;;;;;4983963;28;20118;-83
2023/07/22 00:55:04;;;;;;;13.98;7.32;;;12.30;99.90;;;;;;4984934;28;20447;-83
2023/07/22 00:57:30;;;;;;;12.40;6.47;;;12.20;99.90;;;;;;4990594;28;20035;-83
2023/07/22 00:59:56;;;;;;;15.60;7.53;;;12.20;99.90;;;;;;4951443;28;20404;-83
2023/07/22 01:02:23;;;;;;;16.38;8.20;;;12.20;99.90;;;;;;4970136;28;20046;-83
2023/07/22 01:04:50;;;;;;;13.75;7.03;;;12.10;99.90;;;;;;4970224;28;20055;-81
2023/07/22 01:07:16;;;;;;;15.68;7.53;;;12.10;99.90;;;;;;4971952;28;20042;-81
2023/07/22 01:09:43;;;;;;;13.57;6.95;;;12.10;99.90;;;;;;4982460;28;20396;-82
2023/07/22 01:12:10;;;;;;;14.30;6.55;;;12.00;99.90;;;;;;4980902;28;20061;-81
2023/07/22 01:14:41;;;;;;;13.93;7.35;;;12.00;99.90;;;;;;5003216;28;20042;-81
2023/07/22 01:17:08;;;;;;;17.23;7.13;;;12.00;99.90;;;;;;4966260;28;20415;-81
2023/07/22 01:19:35;;;;;;;14.73;7.70;;;12.00;99.90;;;;;;4973979;28;20034;-81
2023/07/22 01:22:13;;;;;;;13.77;8.10;;;11.90;99.90;;;;;;4983499;28;20503;-81
2023/07/22 01:24:39;;;;;;;16.25;7.13;;;12.00;99.90;;;;;;4971546;28;20054;-81
2023/07/22 01:27:08;;;;;;;12.95;7.18;;;11.90;99.90;;;;;;4954831;28;20045;-81
2023/07/22 01:29:34;;;;;;;15.35;7.90;;;11.90;99.90;;;;;;4984195;28;20571;-81
2023/07/22 01:32:00;;;;;;;14.75;7.88;;;11.90;99.90;;;;;;4962356;28;20042;-81
2023/07/22 01:34:26;;;;;;;13.57;7.43;;;11.80;99.90;;;;;;4982869;28;20108;-81
2023/07/22 01:36:52;;;;;;;15.38;8.50;;;11.80;99.90;;;;;;4988115;28;20042;-81
2023/07/22 01:39:18;;;;;;;16.33;8.13;;;11.80;99.90;;;;;;4993246;28;20046;-81
2023/07/22 01:41:44;;;;;;;13.35;7.65;;;11.80;99.90;;;;;;4984255;28;20077;-81
2023/07/22 01:44:10;;;;;;;14.75;7.80;;;11.80;99.90;;;;;;4984361;28;20042;-81
2023/07/22 01:46:36;;;;;;;12.77;7.65;;;11.80;99.90;;;;;;4987571;28;20130;-81
2023/07/22 01:49:05;;;;;;;14.48;7.22;;;11.70;99.90;;;;;;4954062;28;20101;-81
2023/07/22 01:51:31;;;;;;;13.75;7.03;;;11.70;99.90;;;;;;4985065;28;20042;-81
2023/07/22 01:53:57;;;;;;;13.80;7.07;;;11.70;99.90;;;;;;4985472;28;20042;-81
2023/07/22 01:56:23;;;;;;;16.10;8.13;;;11.70;99.90;;;;;;4969028;28;20050;-81
2023/07/22 01:58:49;;;;;;;15.07;7.90;;;11.70;99.90;;;;;;4972539;28;20050;-81
2023/07/22 02:01:15;;;;;;;18.95;8.50;;;11.70;99.90;;;;;;4984553;28;20097;-81
2023/07/22 02:03:42;;;;;;;14.45;8.27;;;11.70;99.90;;;;;;4990095;28;20039;-81
2023/07/22 02:06:08;;;;;;;17.73;8.75;;;11.70;99.90;;;;;;4960779;28;20053;-82
2023/07/22 02:08:33;;;;;;;16.27;8.07;;;11.70;99.90;;;;;;4972496;28;20042;-81
2023/07/22 02:11:04;;;;;;;17.15;8.60;;;11.70;99.90;;;;;;4970473;28;20035;-82
2023/07/22 02:13:30;;;;;;;15.32;7.85;;;11.70;99.90;;;;;;4989152;28;20639;-82
2023/07/22 02:15:56;;;;;;;18.17;8.80;;;11.60;99.90;;;;;;4965898;28;20593;-82
2023/07/22 02:18:22;;;;;;;17.58;8.40;;;11.60;99.90;;;;;;4985581;28;20057;-82
2023/07/22 02:20:48;;;;;;;13.65;8.65;;;11.60;99.90;;;;;;4968638;28;20039;-82
2023/07/22 02:23:14;;;;;;;16.08;8.10;;;11.50;99.90;;;;;;4954266;28;20042;-82
2023/07/22 02:25:39;;;;;;;15.02;8.05;;;11.50;99.90;;;;;;4971749;28;20093;-82
2023/07/22 02:28:06;;;;;;;14.73;8.43;;;11.50;99.90;;;;;;4969298;28;20045;-82
2023/07/22 02:30:34;;;;;;;15.93;8.20;;;11.50;99.90;;;;;;4967600;28;20092;-82
2023/07/22 02:33:02;;;;;;;20.42;8.75;;;11.50;99.90;;;;;;4963759;28;20437;-82
2023/07/22 02:35:28;;;;;;;16.48;8.82;;;11.50;99.90;;;;;;4986728;28;20149;-82
2023/07/22 02:37:54;;;;;;;15.40;8.02;;;11.50;99.90;;;;;;4970445;28;20057;-82
2023/07/22 02:40:19;;;;;;;18.45;8.80;;;11.50;99.90;;;;;;4985678;28;20137;-82
2023/07/22 02:42:45;;;;;;;15.88;8.05;;;11.50;99.90;;;;;;4986076;28;20054;-82
2023/07/22 02:45:12;;;;;;;15.10;8.57;;;11.50;99.90;;;;;;4983760;28;20031;-81
2023/07/22 02:47:38;;;;;;;15.65;7.53;;;11.50;99.90;;;;;;4963026;28;20041;-82
2023/07/22 02:50:06;;;;;;;15.00;7.70;;;11.50;99.90;;;;;;4970010;28;20366;-82
2023/07/22 02:52:32;;;;;;;17.83;8.90;;;11.50;99.90;;;;;;4981037;28;20042;-82
2023/07/22 02:55:12;;;;;;;19.00;9.48;;;11.50;99.90;;;;;;4971055;28;20038;-82
2023/07/22 02:57:39;;;;;;;19.83;8.68;;;11.40;99.90;;;;;;4983122;28;20516;-82
2023/07/22 03:00:07;;;;;;;15.50;8.75;;;11.40;99.90;;;;;;4965610;28;20039;-82
2023/07/22 03:02:34;;;;;;;17.45;9.43;;;11.40;99.90;;;;;;4970662;28;20078;-82
2023/07/22 03:04:59;;;;;;;20.00;8.98;;;11.40;99.90;;;;;;4980694;28;20047;-82
2023/07/22 03:07:27;;;;;;;22.15;9.52;;;11.40;99.90;;;;;;4958880;28;20117;-81
2023/07/22 03:09:53;;;;;;;17.45;9.57;;;11.40;99.90;;;;;;4962107;28;20027;-82
2023/07/22 03:12:18;;;;;;;21.63;10.20;;;11.40;99.90;;;;;;4983160;28;20514;-82
2023/07/22 03:14:45;;;;;;;19.75;10.40;;;11.40;99.90;;;;;;4969116;28;20069;-81
2023/07/22 03:17:14;;;;;;;21.65;10.32;;;11.50;99.90;;;;;;4973874;28;20144;-82
2023/07/22 03:19:40;;;;;;;24.73;11.00;;;11.50;99.90;;;;;;4960111;28;20042;-82
2023/07/22 03:22:06;;;;;;;19.63;9.90;;;11.50;99.90;;;;;;4967292;28;20057;-82
2023/07/22 03:24:31;;;;;;;22.92;10.07;;;11.60;99.90;;;;;;4951460;28;20519;-82
2023/07/22 03:26:57;;;;;;;20.42;11.23;;;11.60;99.90;;;;;;4967593;28;20372;-82
2023/07/22 03:29:24;;;;;;;26.05;11.10;;;11.60;99.90;;;;;;4994398;28;20043;-82
2023/07/22 03:31:50;;;;;;;25.20;11.48;;;11.60;99.90;;;;;;4980350;28;20844;-82
2023/07/22 03:34:16;;;;;;;20.17;10.73;;;11.70;99.90;;;;;;4982275;28;20053;-82
2023/07/22 03:36:41;;;;;;;22.42;11.60;;;11.70;99.90;;;;;;4971342;28;20039;-82
2023/07/22 03:39:08;;;;;;;18.15;10.02;;;11.70;99.90;;;;;;4951863;28;20361;-82
2023/07/22 03:41:34;;;;;;;20.88;9.82;;;11.70;99.90;;;;;;4966944;28;20097;-82
2023/07/22 03:43:59;;;;;;;27.38;10.75;;;11.70;99.90;;;;;;4940252;28;20046;-82
2023/07/22 03:46:25;;;;;;;18.52;9.18;;;11.80;99.90;;;;;;4949096;28;20530;-82
2023/07/22 03:48:51;;;;;;;19.92;9.90;;;11.80;99.90;;;;;;4982792;28;20030;-82
2023/07/22 03:51:17;;;;;;;18.95;9.55;;;11.90;99.90;;;;;;4979048;28;20037;-82
2023/07/22 03:53:42;;;;;;;21.02;9.88;;;11.90;99.90;;;;;;4969294;28;20031;-82
2023/07/22 03:56:08;;;;;;;17.25;9.88;;;11.90;99.90;;;;;;4983647;28;20827;-82
2023/07/22 03:58:34;;;;;;;17.83;9.45;;;11.90;99.90;;;;;;4973539;28;20101;-82
2023/07/22 04:01:00;;;;;;;16.83;9.35;;;12.00;99.90;;;;;;4973713;28;20046;-84
2023/07/22 04:03:26;;;;;;;22.45;9.80;;;12.00;99.90;;;;;;4959723;28;20042;-82
2023/07/22 04:05:55;;;;;;;21.38;9.15;;;12.00;99.90;;;;;;4973992;28;20043;-82
2023/07/22 04:08:22;;;;;;;16.73;9.85;;;12.00;99.90;;;;;;4988882;28;20073;-82
2023/07/22 04:10:55;;;;;;;23.02;10.00;;;12.00;99.90;;;;;;4990034;28;20126;-82
2023/07/22 04:13:21;;;;;;;19.60;10.23;;;12.00;99.90;;;;;;4974791;28;20048;-82
2023/07/22 04:15:47;;;;;;;23.73;9.88;;;12.10;99.90;;;;;;4973630;28;20074;-83
2023/07/22 04:18:14;;;;;;;16.42;9.13;;;12.10;99.90;;;;;;4973034;28;20042;-82
2023/07/22 04:23:15;;;;;;;18.88;9.45;;;12.20;99.90;;;;;;4945674;22;20053;-74
2023/07/22 04:25:45;;;;;;;17.02;9.93;;;12.20;99.90;;;;;;4987483;28;20104;-75
2023/07/22 04:30:40;;;;;;;19.52;9.48;;;12.30;99.90;;;;;;5004716;28;20046;-79
2023/07/22 04:33:06;;;;;;;16.25;8.90;;;12.40;99.90;;;;;;4974939;28;20068;-79
2023/07/22 04:35:33;;;;;;;16.10;9.10;;;12.40;99.90;;;;;;4992215;28;20038;-79
2023/07/22 04:37:59;;;;;;;19.23;9.65;;;12.40;99.90;;;;;;4986527;28;20042;-79
2023/07/22 04:40:25;;;;;;;16.35;8.90;;;12.50;99.90;;;;;;4987636;28;20044;-80
2023/07/22 04:42:51;;;;;;;18.35;9.35;;;12.50;99.90;;;;;;4987079;28;20117;-80
2023/07/22 04:45:20;;;;;;;19.00;8.93;;;12.60;99.90;;;;;;5004890;28;20116;-80
2023/07/22 04:47:48;;;;;;;16.95;8.50;;;12.60;99.90;;;;;;4988572;28;20429;-80
2023/07/22 04:50:14;;;;;;;20.83;8.95;;;12.70;99.90;;;;;;4972109;28;20121;-80
2023/07/22 04:52:43;;;;;;;17.88;8.50;;;12.70;99.90;;;;;;4971408;28;20038;-80
2023/07/22 04:55:09;;;;;;;19.13;8.82;;;12.70;99.90;;;;;;4983312;28;20501;-79
2023/07/22 04:57:36;;;;;;;17.23;8.70;;;12.80;99.90;;;;;;4986183;28;20068;-80
2023/07/22 05:00:05;;;;;;;16.77;8.68;;;12.90;99.90;;;;;;4986706;28;20033;-79
2023/07/22 05:02:32;;;;;;;16.27;8.80;;;12.90;99.90;;;;;;4972589;28;20053;-80
2023/07/22 05:04:58;;;;;;;17.60;8.68;;;12.90;99.90;;;;;;4969036;28;20080;-80
2023/07/22 05:07:24;;;;;;;14.77;8.15;;;12.90;99.90;;;;;;4984094;28;20066;-80
2023/07/22 05:09:51;;;;;;;14.43;7.78;;;12.90;99.90;;;;;;4985945;28;20087;-80
2023/07/22 05:12:17;;;;;;;17.75;8.40;;;13.00;99.90;;;;;;4988268;28;20069;-80
2023/07/22 05:14:44;;;;;;;17.17;8.48;;;13.00;99.90;;;;;;4987832;28;20041;-80
2023/07/22 05:17:10;;;;;;;15.82;7.38;;;13.00;99.90;;;;;;4990166;28;20030;-80
2023/07/22 05:19:36;;;;;;;15.38;8.05;;;13.10;99.90;;;;;;4986846;28;20065;-80
2023/07/22 05:22:01;;;;;;;15.48;7.75;;;13.10;99.90;;;;;;4985996;28;20092;-80
2023/07/22 05:24:27;;;;;;;13.25;7.35;;;13.10;99.90;;;;;;4971845;28;20124;-80
2023/07/22 05:26:53;;;;;;;16.73;7.88;;;13.20;99.90;;;;;;4971846;28;20052;-80
2023/07/22 05:29:19;;;;;;;19.88;8.30;;;13.20;99.90;;;;;;4964070;28;20473;-80
2023/07/22 05:31:46;;;;;;;15.75;8.48;;;13.20;99.90;;;;;;4919752;28;20126;-80
2023/07/22 05:34:12;;;;;;;15.60;7.35;;;13.20;99.90;;;;;;4969032;28;20132;-80
2023/07/22 05:36:38;;;;;;;15.98;8.00;;;13.20;99.90;;;;;;4952217;28;20466;-79
2023/07/22 05:39:04;;;;;;;12.52;7.80;;;13.30;99.90;;;;;;4967847;28;20042;-80
2023/07/22 05:41:29;;;;;;;14.43;7.88;;;13.30;99.90;;;;;;4971360;28;20498;-79
2023/07/22 05:43:55;;;;;;;14.82;7.97;;;13.30;99.90;;;;;;4956898;28;20039;-80
2023/07/22 05:46:21;;;;;;;14.20;7.93;;;13.40;99.90;;;;;;4921996;28;20042;-80
2023/07/22 05:48:46;;;;;;;14.35;7.47;;;13.40;99.90;;;;;;4956159;28;20122;-80
2023/07/22 05:51:12;;;;;;;15.82;8.07;;;13.40;99.90;;;;;;4936283;28;20758;-80
2023/07/22 05:53:39;;;;;;;15.73;7.82;;;13.40;99.90;;;;;;4937533;28;20039;-79
2023/07/22 05:56:05;;;;;;;15.77;7.47;;;13.40;99.90;;;;;;4973142;28;20038;-80
2023/07/22 05:58:30;;;;;;;19.98;8.43;;;13.40;99.90;;;;;;4972719;28;20112;-79
2023/07/22 06:00:56;;;;;;;13.43;8.80;;;13.40;99.90;;;;;;4939259;28;20424;-80
2023/07/22 06:03:22;;;;;;;16.02;8.00;;;13.40;99.90;;;;;;4956101;28;20815;-79
2023/07/22 06:05:48;;;;;;;12.57;7.72;;;13.50;99.90;;;;;;4955181;28;20093;-80
2023/07/22 06:08:14;;;;;;;14.40;7.60;;;13.50;99.90;;;;;;4971927;28;20487;-80
2023/07/22 06:10:43;;;;;;;14.85;8.18;;;13.50;99.90;;;;;;4988375;28;20053;-80
2023/07/22 06:13:08;;;;;;;15.00;7.78;;;13.60;99.90;;;;;;4933179;28;20039;-79
2023/07/22 06:15:34;;;;;;;17.70;8.75;;;13.60;99.90;;;;;;4955146;28;20088;-79
2023/07/22 06:18:00;;;;;;;16.45;8.68;;;13.60;99.90;;;;;;4937471;28;20066;-79
2023/07/22 06:20:26;;;;;;;14.85;8.05;;;13.70;99.90;;;;;;4970350;28;20133;-80
2023/07/22 06:22:52;;;;;;;15.00;8.40;;;13.70;99.90;;;;;;4956503;28;20129;-79
2023/07/22 06:25:18;;;;;;;19.65;8.80;;;13.70;99.90;;;;;;4938573;28;20131;-80
2023/07/22 06:27:44;;;;;;;15.45;8.13;;;13.80;99.90;;;;;;4938422;28;20042;-80
2023/07/22 06:30:10;;;;;;;16.52;8.63;;;13.80;99.90;;;;;;4977590;28;20057;-79
2023/07/22 06:32:37;;;;;;;18.23;8.75;;;13.80;99.90;;;;;;4969328;28;20072;-79
2023/07/22 06:35:03;;;;;;;14.23;8.73;;;13.90;99.90;;;;;;4945856;28;20034;-80
2023/07/22 06:37:29;;;;;;;16.02;9.63;;;13.90;99.90;;;;;;4983759;28;20070;-79
2023/07/22 06:39:55;;;;;;;16.08;8.82;;;13.90;99.90;;;;;;4964555;28;20033;-80
2023/07/22 06:42:21;;;;;;;17.60;9.30;;;13.90;99.90;;;;;;4969935;28;20049;-80
2023/07/22 06:44:47;;;;;;;15.13;9.43;;;14.00;99.90;;;;;;4967203;28;20042;-79
2023/07/22 06:47:12;;;;;;;15.98;9.27;;;14.00;99.90;;;;;;5000023;28;20545;-80
2023/07/22 06:49:38;;;;;;;16.67;10.18;;;14.10;99.90;;;;;;4978696;28;20072;-80
2023/07/22 06:52:05;;;;;;;18.38;10.07;;;14.20;99.90;;;;;;4979109;28;20441;-80
2023/07/22 06:54:30;;;;;;;23.27;11.23;;;14.30;99.90;;;;;;4971435;28;20030;-79
2023/07/22 06:56:56;;;;;;;22.00;11.18;;;14.30;99.90;;;;;;4954883;28;20037;-79
2023/07/22 06:59:22;;;;;;;21.52;10.85;;;14.40;99.90;;;;;;4951353;28;20046;-80
2023/07/22 07:01:47;;;;;;;21.50;11.20;;;14.40;99.90;;;;;;4984782;28;20038;-79
2023/07/22 07:04:13;;;;;;;22.17;11.25;;;14.40;99.90;;;;;;4983183;28;20041;-80
2023/07/22 07:06:38;;;;;;;21.02;11.73;;;14.40;99.90;;;;;;4994925;28;20068;-80
2023/07/22 07:09:05;;;;;;;23.63;12.23;;;14.50;99.90;;;;;;4985494;28;20568;-79
2023/07/22 07:11:31;;;;;;;23.08;12.00;;;14.50;99.90;;;;;;4966864;28;20494;-79
2023/07/22 07:13:57;;;;;;;23.48;13.05;;;14.60;99.90;;;;;;4974050;28;20531;-79
2023/07/22 07:16:25;;;;;;;21.95;11.90;;;14.70;99.90;;;;;;4975103;28;20148;-79
2023/07/22 07:18:52;;;;;;;23.52;12.25;;;14.60;99.90;;;;;;4973121;28;20045;-80
2023/07/22 07:21:18;;;;;;;26.65;13.00;;;14.60;99.90;;;;;;4956146;28;20049;-80
2023/07/22 07:23:44;;;;;;;24.13;12.57;;;14.70;99.90;;;;;;4962198;28;20053;-80
2023/07/22 07:26:10;;;;;;;24.27;11.98;;;14.70;99.90;;;;;;5006353;28;20418;-82
2023/07/22 07:28:36;;;;;;;20.67;11.02;;;14.70;99.90;;;;;;4967054;28;20057;-80
2023/07/22 07:31:02;;;;;;;21.02;11.20;;;14.80;99.90;;;;;;4991467;28;20037;-80
2023/07/22 07:33:28;;;;;;;20.27;10.63;;;14.90;99.90;;;;;;4992365;28;20116;-80
2023/07/22 07:35:54;;;;;;;18.63;10.88;;;15.00;99.90;;;;;;4975191;28;20043;-81
2023/07/22 07:38:19;;;;;;;20.08;10.98;;;15.10;99.90;;;;;;4958752;28;20085;-80
2023/07/22 07:40:45;;;;;;;17.73;10.05;;;15.10;99.90;;;;;;4992177;28;20069;-81
2023/07/22 07:43:11;;;;;;;19.23;11.85;;;15.20;99.90;;;;;;4971824;28;20026;-81
2023/07/22 07:45:39;;;;;;;19.45;11.52;;;15.30;99.90;;;;;;4964124;28;20039;-81
2023/07/22 07:48:06;;;;;;;23.00;10.93;;;15.40;99.90;;;;;;4968674;28;20034;-81
2023/07/22 07:50:32;;;;;;;20.60;11.57;;;15.50;99.90;;;;;;4976134;28;20114;-80
2023/07/22 07:52:59;;;;;;;21.25;11.80;;;15.50;99.90;;;;;;4974543;28;20049;-81
2023/07/22 07:55:25;;;;;;;19.67;10.55;;;15.50;99.90;;;;;;4967477;28;20092;-82
2023/07/22 07:57:51;;;;;;;21.02;11.10;;;15.60;99.90;;;;;;4958096;28;20131;-82
2023/07/22 08:00:17;;;;;;;20.27;11.95;;;15.70;99.90;;;;;;4973239;28;20042;-80
2023/07/22 08:02:43;;;;;;;17.20;11.00;;;15.80;99.90;;;;;;4937495;28;20053;-80
2023/07/22 08:05:08;;;;;;;20.58;11.57;;;15.90;99.90;;;;;;4942451;28;20042;-77
2023/07/22 08:07:34;;;;;;;21.10;11.38;;;16.00;99.90;;;;;;4961746;28;20394;-78
2023/07/22 08:10:00;;;;;;;20.98;11.32;;;16.20;99.90;;;;;;4958970;28;20070;-79
2023/07/22 08:12:26;;;;;;;17.05;10.50;;;16.30;99.90;;;;;;4942120;28;20046;-79
2023/07/22 08:14:53;;;;;;;19.17;11.25;;;16.50;99.90;;;;;;4942885;28;20042;-80
2023/07/22 08:17:19;;;;;;;19.05;10.88;;;16.70;99.90;;;;;;4957369;28;20173;-79
2023/07/22 08:19:45;;;;;;;17.45;11.43;;;16.80;99.90;;;;;;4927003;28;20042;-79
2023/07/22 08:22:10;;;;;;;19.45;10.32;;;17.00;99.90;;;;;;4940976;28;20487;-77
2023/07/22 08:24:36;;;;;;;17.67;9.45;;;17.00;99.90;;;;;;4941868;28;20037;-78
2023/07/22 08:27:02;;;;;;;17.73;9.95;;;17.00;99.90;;;;;;4955241;28;20050;-78
2023/07/22 08:29:28;;;;;;;17.52;10.13;;;17.10;99.90;;;;;;4953909;28;20054;-79
2023/07/22 08:31:53;;;;;;;16.73;9.18;;;17.20;99.90;;;;;;4984151;28;20190;-79
2023/07/22 08:34:19;;;;;;;15.55;9.98;;;17.20;99.90;;;;;;4966596;28;20052;-78
2023/07/22 08:36:45;;;;;;;14.43;8.13;;;17.30;99.90;;;;;;4975020;28;20132;-79
2023/07/22 08:39:10;;;;;;;14.05;9.35;;;17.30;99.90;;;;;;5009180;28;20048;-79
2023/07/22 08:41:37;;;;;;;20.35;10.20;;;17.20;99.90;;;;;;4968312;28;20085;-78
2023/07/22 08:44:05;;;;;;;15.10;10.13;;;17.30;99.90;;;;;;4966023;28;20050;-79
2023/07/22 08:46:33;;;;;;;15.10;9.13;;;17.50;99.90;;;;;;4968712;28;20046;-79
2023/07/22 08:49:04;;;;;;;13.07;8.82;;;17.40;99.90;;;;;;4966649;28;20037;-80
2023/07/22 08:51:32;;;;;;;15.93;8.98;;;17.60;99.90;;;;;;4966893;28;20149;-79
2023/07/22 08:53:58;;;;;;;14.40;8.57;;;17.60;99.90;;;;;;4966915;28;20487;-79
2023/07/22 08:56:25;;;;;;;15.75;9.32;;;17.90;99.90;;;;;;4987008;28;20065;-79
2023/07/22 08:58:52;;;;;;;12.02;7.93;;;18.10;99.90;;;;;;4988355;28;20038;-78
2023/07/22 09:01:18;;;;;;;17.02;8.52;;;18.20;99.90;;;;;;4988865;28;20100;-79
2023/07/22 09:03:44;;;;;;;11.73;7.00;;;18.40;99.90;;;;;;4986415;28;20573;-79
2023/07/22 09:06:11;;;;;;;10.07;6.72;;;18.60;99.90;;;;;;4994084;28;20031;-78
2023/07/22 09:08:38;;;;;;;12.00;7.05;;;18.60;99.90;;;;;;4977655;28;20045;-79
2023/07/22 09:11:04;;;;;;;10.32;6.22;;;18.60;99.90;;;;;;4976586;28;20508;-78
2023/07/22 09:13:31;;;;;;;9.85;6.05;;;18.60;99.90;;;;;;4975806;28;20036;-79
2023/07/22 09:15:58;;;;;;;9.98;6.70;;;18.60;99.90;;;;;;4995496;28;20038;-74
2023/07/22 09:18:24;;;;;;;12.73;6.10;;;18.60;99.90;;;;;;4990632;28;20336;-79
2023/07/22 09:20:50;;;;;;;12.07;5.82;;;18.60;99.90;;;;;;4980392;28;20045;-75
2023/07/22 09:23:16;;;;;;;8.20;5.45;;;18.60;99.90;;;;;;4994772;28;20037;-71
2023/07/22 09:25:42;;;;;;;10.02;6.50;;;18.60;99.90;;;;;;4979557;28;20069;-77
2023/07/22 09:28:09;;;;;;;8.02;5.40;;;18.70;99.90;;;;;;4990504;28;20121;-76
2023/07/22 09:30:38;;;;;;;8.75;5.10;;;18.60;99.90;;;;;;4978183;28;20149;-75
2023/07/22 09:33:05;;;;;;;8.55;4.88;;;18.50;99.90;;;;;;4982812;28;20084;-78
2023/07/22 09:35:45;;;;;;;9.05;5.95;;;18.40;99.90;;;;;;5013262;28;20041;-76
2023/07/22 09:38:11;;;;;;;9.55;5.32;;;18.30;99.90;;;;;;4991815;28;20124;-80
2023/07/22 09:40:40;;;;;;;9.30;5.22;;;18.30;99.90;;;;;;4978313;28;20042;-76
2023/07/22 09:43:09;;;;;;;9.18;5.72;;;18.10;99.90;;;;;;4974113;28;20498;-76
2023/07/22 09:45:35;;;;;;;9.75;6.00;;;18.00;99.90;;;;;;4989783;28;20643;-75
2023/07/22 09:48:01;;;;;;;13.10;7.05;;;17.90;99.90;;;;;;4995839;28;20128;-77
2023/07/22 09:50:27;;;;;;;12.95;6.80;;;17.60;99.90;;;;;;4980818;28;20042;-79
2023/07/22 09:53:03;;;;;;;11.13;6.82;;;17.50;99.90;;;;;;4995758;28;20069;-77
2023/07/22 09:55:30;;;;;;;11.02;6.90;;;17.20;99.90;;;;;;4990889;28;20053;-79
2023/07/22 09:58:05;;;;;;;14.38;7.57;;;16.80;99.90;;;;;;4979791;28;20037;-79
2023/07/22 10:00:34;;;;;;;14.40;7.30;;;16.60;99.90;;;;;;4975094;28;20065;-78
2023/07/22 10:03:04;;;;;;;14.07;7.43;;;16.30;99.90;;;;;;4989649;28;20474;-80
2023/07/22 10:05:34;;;;;;;11.90;7.20;;;16.10;99.90;;;;;;4990875;28;20073;-80
2023/07/22 10:08:01;;;;;;;13.93;7.78;;;16.00;99.90;;;;;;4996184;28;20516;-79
2023/07/22 10:10:31;;;;;;;9.23;5.50;;;15.90;99.90;;;;;;4996025;28;20552;-80
2023/07/22 10:12:57;;;;;;;10.95;5.60;;;15.70;99.90;;;;;;4980030;28;20038;-80
2023/07/22 10:15:25;;;;;;;8.50;5.75;;;15.50;99.90;;;;;;4995607;28;20048;-79
2023/07/22 10:17:51;;;;;;;9.50;5.90;;;15.30;99.90;;;;;;4977171;28;20144;-79
2023/07/22 10:20:19;;;;;;;9.73;5.10;;;15.30;99.90;;;;;;4996212;28;20199;-81
2023/07/22 10:22:47;;;;;;;9.60;5.60;;;15.20;99.90;;;;;;4964766;28;20574;-82
2023/07/22 10:25:17;;;;;;;6.68;4.93;;;15.10;99.90;;;;;;4977857;28;20050;-80
2023/07/22 10:27:44;;;;;;;11.25;5.78;;;15.00;99.90;;;;;;4989417;28;20057;-86
2023/07/22 10:30:15;;;;;;;9.10;5.80;;;15.00;99.90;;;;;;5010839;28;20050;-79
2023/07/22 10:32:47;;;;;;;10.20;6.05;;;15.00;99.90;;;;;;4993967;28;20533;-79
2023/07/22 10:35:30;;;;;;;15.50;5.57;;;15.00;99.90;;;;;;4988522;28;20038;-79
2023/07/22 10:38:08;;;;;;;8.70;5.47;;;15.10;99.90;;;;;;4980750;28;20113;-79
2023/07/22 10:40:49;;;;;;;10.30;6.25;;;15.10;99.90;;;;;;4976707;28;20302;-79
2023/07/22 10:43:31;;;;;;;9.30;5.53;;;15.20;99.90;;;;;;4987810;28;20077;-79
2023/07/22 10:45:59;;;;;;;10.88;6.57;;;15.20;99.90;;;;;;5001353;28;20054;-79
2023/07/22 10:48:34;;;;;;;9.77;5.82;;;15.30;99.90;;;;;;5001624;28;20283;-79
2023/07/22 10:51:12;;;;;;;12.68;6.40;;;15.30;99.90;;;;;;4990108;28;20046;-79
2023/07/22 10:53:44;;;;;;;10.60;6.82;;;15.30;99.90;;;;;;4985377;28;20044;-79
2023/07/22 10:56:14;;;;;;;;;;;15.40;99.90;;;;;;4986347;28;20038;-79
2023/07/22 10:58:46;;;;;;;13.60;7.30;;;15.40;99.90;;;;;;4992388;28;19918;-79
2023/07/22 11:01:30;;;;;;;15.48;8.18;;;15.40;99.90;;;;;;5001769;28;20165;-79
2023/07/22 11:04:12;;;;;;;14.00;8.30;;;15.40;99.90;;;;;;5004646;28;20107;-79
2023/07/22 11:06:59;;;;;;;15.10;7.93;;;15.40;99.90;;;;;;5002555;28;20137;-79
2023/07/22 11:09:29;;;;;;;12.98;7.95;;;15.50;99.90;;;;;;4989522;28;20046;-79
2023/07/22 11:12:01;;;;;;;14.27;8.05;;;15.50;99.90;;;;;;4981704;28;20652;-79
2023/07/22 11:14:29;;;;;;;13.48;7.80;;;15.50;99.90;;;;;;5005625;28;20113;-79
2023/07/22 11:16:57;;;;;;;13.40;7.80;;;15.50;99.90;;;;;;5006988;28;20064;-79
2023/07/22 11:19:24;;;;;;;14.20;8.80;;;15.50;99.90;;;;;;5005174;28;20049;-79
2023/07/22 11:21:51;;;;;;;13.63;7.93;;;15.50;99.90;;;;;;4992953;28;20095;-79
2023/07/22 11:24:18;;;;;;;15.45;8.50;;;15.50;99.90;;;;;;4999425;28;20034;-79
2023/07/22 11:26:45;;;;;;;14.57;8.82;;;15.50;99.90;;;;;;5001221;28;20042;-79
2023/07/22 11:29:12;;;;;;;14.45;8.38;;;15.50;99.90;;;;;;4993807;28;20509;-79
2023/07/22 11:31:43;;;;;;;14.02;7.78;;;15.50;99.90;;;;;;5009464;28;20045;-79
2023/07/22 11:34:13;;;;;;;13.75;7.97;;;15.60;99.90;;;;;;5010622;28;20487;-79
2023/07/22 11:36:40;;;;;;;17.20;8.48;;;15.50;99.90;;;;;;5006502;28;20038;-78
2023/07/22 11:39:17;;;;;;;18.48;9.05;;;15.50;99.90;;;;;;5007705;28;20046;-81
2023/07/22 11:41:44;;;;;;;18.08;9.23;;;15.50;99.90;;;;;;4988624;28;20042;-77
2023/07/22 11:44:13;;;;;;;15.73;10.00;;;15.40;99.90;;;;;;4994661;28;20050;-77
2023/07/22 11:47:07;;;;;;;20.60;10.48;;;15.40;99.90;;;;;;4989297;28;20052;-78
2023/07/22 11:49:36;;;;;;;16.58;10.10;;;15.40;99.90;;;;;;4991317;28;20046;-78
2023/07/22 11:52:10;;;;;;;22.17;11.00;;;15.30;99.90;;;;;;4992886;28;20614;-88
2023/07/22 11:54:39;;;;;;;19.45;10.32;;;15.30;99.90;;;;;;5006697;28;20038;-78
2023/07/22 11:57:17;;;;;;;18.75;9.68;;;15.30;99.90;;;;;;5010424;28;20225;-79
2023/07/22 11:59:55;;;;;;;15.55;8.98;;;15.30;99.90;;;;;;4993712;28;20056;-78
2023/07/22 12:02:26;;;;;;;12.52;8.60;;;15.30;99.90;;;;;;4990253;28;20050;-78
2023/07/22 12:05:05;;;;;;;15.43;8.85;;;15.20;99.90;;;;;;5007681;28;20041;-78
2023/07/22 12:07:36;;;;;;;12.52;8.50;;;15.20;99.90;;;;;;4962587;28;20081;-78
2023/07/22 12:10:07;;;;;;;15.02;8.32;;;15.10;99.90;;;;;;4992175;28;20033;-78
2023/07/22 12:12:37;;;;;;;14.30;8.07;;;15.20;99.90;;;;;;5010915;28;20043;-78
2023/07/22 12:15:15;;;;;;;12.52;8.60;;;15.30;99.90;;;;;;4992165;28;20057;-77
2023/07/22 12:18:00;;;;;;;10.45;7.60;;;15.30;99.90;;;;;;5010855;28;20045;-77
2023/07/22 12:20:28;;;;;;;9.50;6.97;;;15.30;99.90;;;;;;4990710;28;20053;-77
2023/07/22 12:22:55;;;;;;;10.18;7.72;;;15.30;99.90;;;;;;4993597;28;20081;-78
2023/07/22 12:25:21;;;;;;;10.82;7.22;;;15.30;99.90;;;;;;5010377;28;20046;-78
2023/07/22 12:27:46;;;;;;;13.02;8.77;;;15.30;99.90;;;;;;5012306;28;20125;-78
2023/07/22 12:30:12;;;;;;;13.07;8.77;;;15.30;99.90;;;;;;4996394;28;20057;-78
2023/07/22 12:32:38;;;;;;;9.32;6.85;;;15.30;99.90;;;;;;5011768;28;20053;-78
2023/07/22 12:35:05;;;;;;;10.93;7.22;;;15.20;99.90;;;;;;4995903;28;20084;-77
2023/07/22 12:37:31;;;;;;;12.57;7.43;;;15.20;99.90;;;;;;4979831;28;20049;-77
2023/07/22 12:39:57;;;;;;;11.57;7.32;;;15.20;99.90;;;;;;5012171;28;20041;-78
2023/07/22 12:42:23;;;;;;;11.75;8.38;;;15.10;99.90;;;;;;5008727;28;20042;-78